sensor_id;sensor_type;location;lat;lon;timestamp;temperature;humidity
43651;DHT22;29247;50.944;5.382;2023-03-01T00:01:08;2.40;68.00
43651;DHT22;29247;50.944;5.382;2023-03-01T00:03:36;2.40;68.10
43651;DHT22;29247;50.944;5.382;2023-03-01T00:06:05;2.40;68.10
43651;DHT22;29247;50.944;5.382;2023-03-01T00:08:31;2.30;68.00
43651;DHT22;29247;50.944;5.382;2023-03-01T00:13:35;2.30;68.20
43651;DHT22;29247;50.944;5.382;2023-03-01T00:16:06;2.30;68.20
43651;DHT22;29247;50.944;5.382;2023-03-01T00:18:34;2.20;68.20
43651;DHT22;29247;50.944;5.382;2023-03-01T00:21:00;2.20;68.30
43651;DHT22;29247;50.944;5.382;2023-03-01T00:23:29;2.20;68.30
43651;DHT22;29247;50.944;5.382;2023-03-01T00:25:55;2.20;68.40
43651;DHT22;29247;50.944;5.382;2023-03-01T00:28:20;2.10;68.40
43651;DHT22;29247;50.944;5.382;2023-03-01T00:30:51;2.10;68.60
43651;DHT22;29247;50.944;5.382;2023-03-01T00:33:17;2.10;68.50
43651;DHT22;29247;50.944;5.382;2023-03-01T00:35:43;2.00;68.50
43651;DHT22;29247;50.944;5.382;2023-03-01T00:38:09;2.00;68.60
43651;DHT22;29247;50.944;5.382;2023-03-01T00:40:37;2.00;69.00
43651;DHT22;29247;50.944;5.382;2023-03-01T00:43:03;1.90;69.50
43651;DHT22;29247;50.944;5.382;2023-03-01T00:45:29;1.90;69.70
43651;DHT22;29247;50.944;5.382;2023-03-01T00:47:56;1.90;69.90
43651;DHT22;29247;50.944;5.382;2023-03-01T00:50:23;1.90;70.10
43651;DHT22;29247;50.944;5.382;2023-03-01T00:52:55;1.90;70.30
43651;DHT22;29247;50.944;5.382;2023-03-01T00:55:21;1.90;70.40
43651;DHT22;29247;50.944;5.382;2023-03-01T00:57:47;1.90;70.50
43651;DHT22;29247;50.944;5.382;2023-03-01T01:00:13;1.90;70.50
43651;DHT22;29247;50.944;5.382;2023-03-01T01:02:40;1.90;70.60
43651;DHT22;29247;50.944;5.382;2023-03-01T01:05:10;1.90;70.60
43651;DHT22;29247;50.944;5.382;2023-03-01T01:07:38;1.90;71.30
43651;DHT22;29247;50.944;5.382;2023-03-01T01:10:05;1.90;70.50
43651;DHT22;29247;50.944;5.382;2023-03-01T01:12:33;1.90;70.50
43651;DHT22;29247;50.944;5.382;2023-03-01T01:15:08;1.90;70.50
43651;DHT22;29247;50.944;5.382;2023-03-01T01:17:37;1.90;70.50
43651;DHT22;29247;50.944;5.382;2023-03-01T01:20:03;1.90;70.50
43651;DHT22;29247;50.944;5.382;2023-03-01T01:22:29;1.90;70.60
43651;DHT22;29247;50.944;5.382;2023-03-01T01:24:55;1.90;70.60
43651;DHT22;29247;50.944;5.382;2023-03-01T01:27:24;1.90;70.70
43651;DHT22;29247;50.944;5.382;2023-03-01T01:29:52;1.80;70.70
43651;DHT22;29247;50.944;5.382;2023-03-01T01:32:20;1.90;70.90
43651;DHT22;29247;50.944;5.382;2023-03-01T01:34:46;1.80;71.00
43651;DHT22;29247;50.944;5.382;2023-03-01T01:37:14;1.80;71.10
43651;DHT22;29247;50.944;5.382;2023-03-01T01:39:39;1.80;71.00
43651;DHT22;29247;50.944;5.382;2023-03-01T01:42:06;1.80;71.00
43651;DHT22;29247;50.944;5.382;2023-03-01T01:44:33;1.80;71.00
43651;DHT22;29247;50.944;5.382;2023-03-01T01:47:06;1.80;71.00
43651;DHT22;29247;50.944;5.382;2023-03-01T01:49:45;1.70;71.00
43651;DHT22;29247;50.944;5.382;2023-03-01T01:55:05;1.70;71.10
43651;DHT22;29247;50.944;5.382;2023-03-01T01:57:36;1.70;71.20
43651;DHT22;29247;50.944;5.382;2023-03-01T02:00:16;1.70;71.20
43651;DHT22;29247;50.944;5.382;2023-03-01T02:02:46;1.70;71.30
43651;DHT22;29247;50.944;5.382;2023-03-01T02:07:47;1.70;71.30
43651;DHT22;29247;50.944;5.382;2023-03-01T02:10:15;1.70;71.40
43651;DHT22;29247;50.944;5.382;2023-03-01T02:12:41;1.60;71.40
43651;DHT22;29247;50.944;5.382;2023-03-01T02:15:07;1.60;71.40
43651;DHT22;29247;50.944;5.382;2023-03-01T02:17:35;1.60;71.50
43651;DHT22;29247;50.944;5.382;2023-03-01T02:22:40;1.60;71.70
43651;DHT22;29247;50.944;5.382;2023-03-01T02:25:12;1.60;71.70
43651;DHT22;29247;50.944;5.382;2023-03-01T02:30:35;1.60;71.80
43651;DHT22;29247;50.944;5.382;2023-03-01T02:33:03;1.50;71.80
43651;DHT22;29247;50.944;5.382;2023-03-01T02:35:38;1.50;72.00
43651;DHT22;29247;50.944;5.382;2023-03-01T02:38:07;1.50;72.10
43651;DHT22;29247;50.944;5.382;2023-03-01T02:40:38;1.50;72.10
43651;DHT22;29247;50.944;5.382;2023-03-01T02:43:07;1.40;72.10
43651;DHT22;29247;50.944;5.382;2023-03-01T02:45:34;1.40;72.10
43651;DHT22;29247;50.944;5.382;2023-03-01T02:47:59;1.40;72.20
43651;DHT22;29247;50.944;5.382;2023-03-01T02:53:00;1.40;72.30
43651;DHT22;29247;50.944;5.382;2023-03-01T02:55:27;1.40;72.40
43651;DHT22;29247;50.944;5.382;2023-03-01T02:57:53;1.40;72.40
43651;DHT22;29247;50.944;5.382;2023-03-01T03:00:24;1.30;72.40
43651;DHT22;29247;50.944;5.382;2023-03-01T03:02:55;1.30;72.40
43651;DHT22;29247;50.944;5.382;2023-03-01T03:05:25;1.30;72.50
43651;DHT22;29247;50.944;5.382;2023-03-01T03:07:51;1.30;72.50
43651;DHT22;29247;50.944;5.382;2023-03-01T03:10:20;1.30;72.40
43651;DHT22;29247;50.944;5.382;2023-03-01T03:12:57;1.20;72.50
43651;DHT22;29247;50.944;5.382;2023-03-01T03:15:27;1.20;72.50
43651;DHT22;29247;50.944;5.382;2023-03-01T03:17:57;1.20;72.60
43651;DHT22;29247;50.944;5.382;2023-03-01T03:20:27;1.20;72.60
43651;DHT22;29247;50.944;5.382;2023-03-01T03:22:55;1.10;72.70
43651;DHT22;29247;50.944;5.382;2023-03-01T03:25:22;1.10;72.90
43651;DHT22;29247;50.944;5.382;2023-03-01T03:27:49;1.10;73.10
43651;DHT22;29247;50.944;5.382;2023-03-01T03:30:26;1.00;73.10
43651;DHT22;29247;50.944;5.382;2023-03-01T03:32:52;1.00;73.20
43651;DHT22;29247;50.944;5.382;2023-03-01T03:37:51;1.00;73.30
43651;DHT22;29247;50.944;5.382;2023-03-01T03:40:38;1.00;73.60
43651;DHT22;29247;50.944;5.382;2023-03-01T03:43:06;1.00;73.70
43651;DHT22;29247;50.944;5.382;2023-03-01T03:45:32;1.00;73.80
43651;DHT22;29247;50.944;5.382;2023-03-01T03:47:59;1.00;73.90
43651;DHT22;29247;50.944;5.382;2023-03-01T03:50:28;0.90;73.80
43651;DHT22;29247;50.944;5.382;2023-03-01T03:52:56;0.90;73.80
43651;DHT22;29247;50.944;5.382;2023-03-01T03:55:24;0.90;73.80
43651;DHT22;29247;50.944;5.382;2023-03-01T03:57:53;0.90;73.90
43651;DHT22;29247;50.944;5.382;2023-03-01T04:00:22;0.90;73.90
43651;DHT22;29247;50.944;5.382;2023-03-01T04:02:50;0.90;73.90
43651;DHT22;29247;50.944;5.382;2023-03-01T04:05:22;0.90;74.60
43651;DHT22;29247;50.944;5.382;2023-03-01T04:07:50;0.90;73.90
43651;DHT22;29247;50.944;5.382;2023-03-01T04:10:30;0.80;74.00
43651;DHT22;29247;50.944;5.382;2023-03-01T04:12:56;0.90;74.00
43651;DHT22;29247;50.944;5.382;2023-03-01T04:15:26;0.90;74.00
43651;DHT22;29247;50.944;5.382;2023-03-01T04:17:53;0.80;74.00
43651;DHT22;29247;50.944;5.382;2023-03-01T04:20:29;0.80;74.00
43651;DHT22;29247;50.944;5.382;2023-03-01T04:23:08;0.80;74.10
43651;DHT22;29247;50.944;5.382;2023-03-01T04:28:20;0.80;74.00
43651;DHT22;29247;50.944;5.382;2023-03-01T04:30:49;0.80;73.90
43651;DHT22;29247;50.944;5.382;2023-03-01T04:33:14;0.80;74.80
43651;DHT22;29247;50.944;5.382;2023-03-01T04:35:40;0.80;74.20
43651;DHT22;29247;50.944;5.382;2023-03-01T04:38:09;0.80;74.40
43651;DHT22;29247;50.944;5.382;2023-03-01T04:40:35;0.80;74.50
43651;DHT22;29247;50.944;5.382;2023-03-01T04:43:00;0.70;74.50
43651;DHT22;29247;50.944;5.382;2023-03-01T04:45:26;0.70;74.60
43651;DHT22;29247;50.944;5.382;2023-03-01T04:47:55;0.70;74.70
43651;DHT22;29247;50.944;5.382;2023-03-01T04:50:24;0.70;74.70
43651;DHT22;29247;50.944;5.382;2023-03-01T04:52:52;0.70;74.70
43651;DHT22;29247;50.944;5.382;2023-03-01T04:55:18;0.70;74.70
43651;DHT22;29247;50.944;5.382;2023-03-01T04:57:44;0.70;74.80
43651;DHT22;29247;50.944;5.382;2023-03-01T05:00:12;0.70;75.00
43651;DHT22;29247;50.944;5.382;2023-03-01T05:02:53;0.60;75.10
43651;DHT22;29247;50.944;5.382;2023-03-01T05:05:32;0.60;75.10
43651;DHT22;29247;50.944;5.382;2023-03-01T05:08:03;0.60;75.20
43651;DHT22;29247;50.944;5.382;2023-03-01T05:10:30;0.60;75.20
43651;DHT22;29247;50.944;5.382;2023-03-01T05:12:57;0.60;75.20
43651;DHT22;29247;50.944;5.382;2023-03-01T05:15:27;0.60;75.30
43651;DHT22;29247;50.944;5.382;2023-03-01T05:17:58;0.60;75.40
43651;DHT22;29247;50.944;5.382;2023-03-01T05:20:28;0.60;75.40
43651;DHT22;29247;50.944;5.382;2023-03-01T05:22:59;0.50;75.40
43651;DHT22;29247;50.944;5.382;2023-03-01T05:25:31;0.50;75.40
43651;DHT22;29247;50.944;5.382;2023-03-01T05:28:02;0.50;75.40
43651;DHT22;29247;50.944;5.382;2023-03-01T05:30:31;0.50;75.50
43651;DHT22;29247;50.944;5.382;2023-03-01T05:33:00;0.40;75.60
43651;DHT22;29247;50.944;5.382;2023-03-01T05:35:26;0.40;75.80
43651;DHT22;29247;50.944;5.382;2023-03-01T05:37:53;0.40;75.90
43651;DHT22;29247;50.944;5.382;2023-03-01T05:40:21;0.40;75.90
43651;DHT22;29247;50.944;5.382;2023-03-01T05:42:55;0.40;75.90
43651;DHT22;29247;50.944;5.382;2023-03-01T05:45:23;0.40;75.90
43651;DHT22;29247;50.944;5.382;2023-03-01T05:47:49;0.40;75.90
43651;DHT22;29247;50.944;5.382;2023-03-01T05:50:17;0.40;75.80
43651;DHT22;29247;50.944;5.382;2023-03-01T05:52:46;0.40;75.90
43651;DHT22;29247;50.944;5.382;2023-03-01T05:55:12;0.40;75.90
43651;DHT22;29247;50.944;5.382;2023-03-01T05:57:40;0.40;75.90
43651;DHT22;29247;50.944;5.382;2023-03-01T06:00:11;0.30;75.90
43651;DHT22;29247;50.944;5.382;2023-03-01T06:02:37;0.30;76.00
43651;DHT22;29247;50.944;5.382;2023-03-01T06:05:04;0.30;76.00
43651;DHT22;29247;50.944;5.382;2023-03-01T06:07:33;0.30;76.00
43651;DHT22;29247;50.944;5.382;2023-03-01T06:10:01;0.30;75.90
43651;DHT22;29247;50.944;5.382;2023-03-01T06:12:31;0.30;75.80
43651;DHT22;29247;50.944;5.382;2023-03-01T06:14:56;0.30;75.80
43651;DHT22;29247;50.944;5.382;2023-03-01T06:17:24;0.30;75.80
43651;DHT22;29247;50.944;5.382;2023-03-01T06:19:50;0.30;75.80
43651;DHT22;29247;50.944;5.382;2023-03-01T06:22:16;0.30;75.70
43651;DHT22;29247;50.944;5.382;2023-03-01T06:24:42;0.30;75.70
43651;DHT22;29247;50.944;5.382;2023-03-01T06:27:10;0.30;75.80
43651;DHT22;29247;50.944;5.382;2023-03-01T06:29:36;0.30;75.80
43651;DHT22;29247;50.944;5.382;2023-03-01T06:32:04;0.30;75.90
43651;DHT22;29247;50.944;5.382;2023-03-01T06:34:32;0.30;75.80
43651;DHT22;29247;50.944;5.382;2023-03-01T06:36:58;0.30;75.90
43651;DHT22;29247;50.944;5.382;2023-03-01T06:39:31;0.20;75.90
43651;DHT22;29247;50.944;5.382;2023-03-01T06:41:57;0.20;76.00
43651;DHT22;29247;50.944;5.382;2023-03-01T06:44:26;0.20;76.10
43651;DHT22;29247;50.944;5.382;2023-03-01T06:46:55;0.20;76.20
43651;DHT22;29247;50.944;5.382;2023-03-01T06:49:23;0.20;76.30
43651;DHT22;29247;50.944;5.382;2023-03-01T06:51:49;0.20;76.40
43651;DHT22;29247;50.944;5.382;2023-03-01T06:54:15;0.20;76.50
43651;DHT22;29247;50.944;5.382;2023-03-01T06:56:43;0.20;76.50
43651;DHT22;29247;50.944;5.382;2023-03-01T06:59:13;0.20;76.30
43651;DHT22;29247;50.944;5.382;2023-03-01T07:01:39;0.20;76.30
43651;DHT22;29247;50.944;5.382;2023-03-01T07:04:06;0.20;76.40
43651;DHT22;29247;50.944;5.382;2023-03-01T07:06:34;0.20;76.40
43651;DHT22;29247;50.944;5.382;2023-03-01T07:09:01;0.20;76.50
43651;DHT22;29247;50.944;5.382;2023-03-01T07:11:26;0.20;76.50
43651;DHT22;29247;50.944;5.382;2023-03-01T07:13:53;0.30;76.60
43651;DHT22;29247;50.944;5.382;2023-03-01T07:16:18;0.30;76.60
43651;DHT22;29247;50.944;5.382;2023-03-01T07:18:48;0.30;76.60
43651;DHT22;29247;50.944;5.382;2023-03-01T07:21:15;0.30;76.60
43651;DHT22;29247;50.944;5.382;2023-03-01T07:23:49;0.30;76.60
43651;DHT22;29247;50.944;5.382;2023-03-01T07:26:15;0.30;76.70
43651;DHT22;29247;50.944;5.382;2023-03-01T07:28:44;0.30;76.80
43651;DHT22;29247;50.944;5.382;2023-03-01T07:31:09;0.40;77.00
43651;DHT22;29247;50.944;5.382;2023-03-01T07:33:35;0.40;77.20
43651;DHT22;29247;50.944;5.382;2023-03-01T07:36:06;0.40;77.30
43651;DHT22;29247;50.944;5.382;2023-03-01T07:38:32;0.40;77.50
43651;DHT22;29247;50.944;5.382;2023-03-01T07:41:03;0.50;77.90
43651;DHT22;29247;50.944;5.382;2023-03-01T07:43:29;0.50;77.90
43651;DHT22;29247;50.944;5.382;2023-03-01T07:46:00;0.60;77.90
43651;DHT22;29247;50.944;5.382;2023-03-01T07:48:26;0.60;77.90
43651;DHT22;29247;50.944;5.382;2023-03-01T07:50:51;0.60;78.00
43651;DHT22;29247;50.944;5.382;2023-03-01T07:53:22;0.70;78.20
43651;DHT22;29247;50.944;5.382;2023-03-01T07:55:50;0.70;78.30
43651;DHT22;29247;50.944;5.382;2023-03-01T07:58:18;0.80;78.30
43651;DHT22;29247;50.944;5.382;2023-03-01T08:00:44;0.80;78.10
43651;DHT22;29247;50.944;5.382;2023-03-01T08:03:11;0.90;78.00
43651;DHT22;29247;50.944;5.382;2023-03-01T08:05:37;1.00;77.90
43651;DHT22;29247;50.944;5.382;2023-03-01T08:08:04;1.00;77.90
43651;DHT22;29247;50.944;5.382;2023-03-01T08:10:32;1.10;78.10
43651;DHT22;29247;50.944;5.382;2023-03-01T08:12:58;1.20;78.00
43651;DHT22;29247;50.944;5.382;2023-03-01T08:15:24;1.20;77.60
43651;DHT22;29247;50.944;5.382;2023-03-01T08:17:49;1.30;77.20
43651;DHT22;29247;50.944;5.382;2023-03-01T08:20:16;1.30;77.00
43651;DHT22;29247;50.944;5.382;2023-03-01T08:22:44;1.40;76.90
43651;DHT22;29247;50.944;5.382;2023-03-01T08:25:14;1.50;76.80
43651;DHT22;29247;50.944;5.382;2023-03-01T08:27:40;1.60;76.50
43651;DHT22;29247;50.944;5.382;2023-03-01T08:30:06;1.70;76.30
43651;DHT22;29247;50.944;5.382;2023-03-01T08:32:37;1.80;76.00
43651;DHT22;29247;50.944;5.382;2023-03-01T08:35:06;1.90;75.70
43651;DHT22;29247;50.944;5.382;2023-03-01T08:37:32;1.90;75.40
43651;DHT22;29247;50.944;5.382;2023-03-01T08:39:59;2.00;75.30
43651;DHT22;29247;50.944;5.382;2023-03-01T08:42:25;2.10;75.00
43651;DHT22;29247;50.944;5.382;2023-03-01T08:44:54;2.10;74.80
43651;DHT22;29247;50.944;5.382;2023-03-01T08:47:19;2.20;74.40
43651;DHT22;29247;50.944;5.382;2023-03-01T08:49:48;2.20;74.00
43651;DHT22;29247;50.944;5.382;2023-03-01T08:52:14;2.30;73.60
43651;DHT22;29247;50.944;5.382;2023-03-01T08:54:42;2.30;73.40
43651;DHT22;29247;50.944;5.382;2023-03-01T08:57:12;2.40;73.20
43651;DHT22;29247;50.944;5.382;2023-03-01T08:59:41;2.50;73.00
43651;DHT22;29247;50.944;5.382;2023-03-01T09:02:12;2.60;72.60
43651;DHT22;29247;50.944;5.382;2023-03-01T09:04:38;2.70;72.30
43651;DHT22;29247;50.944;5.382;2023-03-01T09:07:04;2.70;71.80
43651;DHT22;29247;50.944;5.382;2023-03-01T09:09:30;2.70;71.50
43651;DHT22;29247;50.944;5.382;2023-03-01T09:11:57;2.80;71.50
43651;DHT22;29247;50.944;5.382;2023-03-01T09:14:23;2.90;71.50
43651;DHT22;29247;50.944;5.382;2023-03-01T09:16:48;3.00;71.30
43651;DHT22;29247;50.944;5.382;2023-03-01T09:19:16;3.10;71.00
43651;DHT22;29247;50.944;5.382;2023-03-01T09:21:42;3.20;70.70
43651;DHT22;29247;50.944;5.382;2023-03-01T09:24:21;3.30;70.30
43651;DHT22;29247;50.944;5.382;2023-03-01T09:26:47;3.40;69.90
43651;DHT22;29247;50.944;5.382;2023-03-01T09:29:14;3.50;69.70
43651;DHT22;29247;50.944;5.382;2023-03-01T09:31:41;3.60;68.80
43651;DHT22;29247;50.944;5.382;2023-03-01T09:34:07;3.70;68.60
43651;DHT22;29247;50.944;5.382;2023-03-01T09:36:36;3.80;68.70
43651;DHT22;29247;50.944;5.382;2023-03-01T09:39:03;3.90;68.20
43651;DHT22;29247;50.944;5.382;2023-03-01T09:42:00;4.00;68.10
43651;DHT22;29247;50.944;5.382;2023-03-01T09:47:21;4.30;66.80
43651;DHT22;29247;50.944;5.382;2023-03-01T09:50:17;4.40;66.60
43651;DHT22;29247;50.944;5.382;2023-03-01T09:55:25;4.70;66.30
43651;DHT22;29247;50.944;5.382;2023-03-01T10:00:57;4.90;64.50
43651;DHT22;29247;50.944;5.382;2023-03-01T10:03:48;5.00;64.20
43651;DHT22;29247;50.944;5.382;2023-03-01T10:06:21;5.10;64.10
43651;DHT22;29247;50.944;5.382;2023-03-01T10:09:05;5.20;63.40
43651;DHT22;29247;50.944;5.382;2023-03-01T10:11:36;5.30;63.20
43651;DHT22;29247;50.944;5.382;2023-03-01T10:14:03;5.40;62.70
43651;DHT22;29247;50.944;5.382;2023-03-01T10:19:23;5.60;62.80
43651;DHT22;29247;50.944;5.382;2023-03-01T10:21:56;5.80;62.50
43651;DHT22;29247;50.944;5.382;2023-03-01T10:24:23;5.90;61.80
43651;DHT22;29247;50.944;5.382;2023-03-01T10:26:54;5.90;61.50
43651;DHT22;29247;50.944;5.382;2023-03-01T10:29:31;6.00;61.30
43651;DHT22;29247;50.944;5.382;2023-03-01T10:32:00;6.10;61.10
43651;DHT22;29247;50.944;5.382;2023-03-01T10:34:36;6.10;60.70
43651;DHT22;29247;50.944;5.382;2023-03-01T10:37:18;6.10;59.80
43651;DHT22;29247;50.944;5.382;2023-03-01T10:42:46;6.20;59.50
43651;DHT22;29247;50.944;5.382;2023-03-01T10:45:38;6.30;59.50
43651;DHT22;29247;50.944;5.382;2023-03-01T10:48:19;6.40;59.50
43651;DHT22;29247;50.944;5.382;2023-03-01T10:50:51;6.40;59.30
43651;DHT22;29247;50.944;5.382;2023-03-01T10:53:34;6.50;59.10
43651;DHT22;29247;50.944;5.382;2023-03-01T10:56:14;6.60;59.00
43651;DHT22;29247;50.944;5.382;2023-03-01T10:59:02;6.60;58.80
43651;DHT22;29247;50.944;5.382;2023-03-01T11:01:31;6.70;58.10
43651;DHT22;29247;50.944;5.382;2023-03-01T11:06:42;6.80;57.80
43651;DHT22;29247;50.944;5.382;2023-03-01T11:09:20;6.80;57.70
43651;DHT22;29247;50.944;5.382;2023-03-01T11:11:47;6.80;56.90
43651;DHT22;29247;50.944;5.382;2023-03-01T11:14:29;6.80;56.30
43651;DHT22;29247;50.944;5.382;2023-03-01T11:17:12;6.80;56.40
43651;DHT22;29247;50.944;5.382;2023-03-01T11:19:39;6.80;56.10
43651;DHT22;29247;50.944;5.382;2023-03-01T11:22:18;6.80;55.90
43651;DHT22;29247;50.944;5.382;2023-03-01T11:24:47;6.80;55.80
43651;DHT22;29247;50.944;5.382;2023-03-01T11:27:24;6.80;55.70
43651;DHT22;29247;50.944;5.382;2023-03-01T11:29:58;6.90;56.00
43651;DHT22;29247;50.944;5.382;2023-03-01T11:32:34;6.90;55.40
43651;DHT22;29247;50.944;5.382;2023-03-01T11:35:14;6.90;55.20
43651;DHT22;29247;50.944;5.382;2023-03-01T11:38:02;6.90;54.80
43651;DHT22;29247;50.944;5.382;2023-03-01T11:40:41;6.90;54.80
43651;DHT22;29247;50.944;5.382;2023-03-01T11:43:23;6.90;55.10
43651;DHT22;29247;50.944;5.382;2023-03-01T11:48:37;7.10;55.00
43651;DHT22;29247;50.944;5.382;2023-03-01T11:51:12;7.10;55.00
43651;DHT22;29247;50.944;5.382;2023-03-01T11:56:31;7.20;54.20
43651;DHT22;29247;50.944;5.382;2023-03-01T12:10:22;7.30;53.60
43651;DHT22;29247;50.944;5.382;2023-03-01T12:13:16;7.30;52.60
43651;DHT22;29247;50.944;5.382;2023-03-01T12:16:47;7.40;52.70
43651;DHT22;29247;50.944;5.382;2023-03-01T12:24:31;7.50;52.70
43651;DHT22;29247;50.944;5.382;2023-03-01T12:33:07;7.70;52.50
43651;DHT22;29247;50.944;5.382;2023-03-01T12:51:11;7.80;52.00
43651;DHT22;29247;50.944;5.382;2023-03-01T12:53:42;7.80;51.80
43651;DHT22;29247;50.944;5.382;2023-03-01T12:56:11;7.80;51.70
43651;DHT22;29247;50.944;5.382;2023-03-01T12:59:11;7.90;51.50
43651;DHT22;29247;50.944;5.382;2023-03-01T13:01:54;7.80;51.30
43651;DHT22;29247;50.944;5.382;2023-03-01T13:07:44;7.70;51.50
43651;DHT22;29247;50.944;5.382;2023-03-01T13:23:29;7.60;51.80
43651;DHT22;29247;50.944;5.382;2023-03-01T13:26:19;7.60;51.30
43651;DHT22;29247;50.944;5.382;2023-03-01T13:39:03;7.70;51.40
43651;DHT22;29247;50.944;5.382;2023-03-01T13:44:34;7.70;51.30
43651;DHT22;29247;50.944;5.382;2023-03-01T13:47:16;7.70;51.40
43651;DHT22;29247;50.944;5.382;2023-03-01T13:49:44;7.70;51.80
43651;DHT22;29247;50.944;5.382;2023-03-01T13:55:51;7.70;51.80
43651;DHT22;29247;50.944;5.382;2023-03-01T13:57:57;7.80;51.90
43651;DHT22;29247;50.944;5.382;2023-03-01T14:00:39;7.80;51.70
43651;DHT22;29247;50.944;5.382;2023-03-01T14:03:16;7.90;51.50
43651;DHT22;29247;50.944;5.382;2023-03-01T14:06:07;7.80;51.50
43651;DHT22;29247;50.944;5.382;2023-03-01T14:08:35;7.80;51.60
43651;DHT22;29247;50.944;5.382;2023-03-01T14:19:18;7.90;50.90
43651;DHT22;29247;50.944;5.382;2023-03-01T14:21:47;7.90;50.60
43651;DHT22;29247;50.944;5.382;2023-03-01T14:24:23;8.00;50.50
43651;DHT22;29247;50.944;5.382;2023-03-01T14:26:54;8.00;50.50
43651;DHT22;29247;50.944;5.382;2023-03-01T14:29:35;8.00;50.40
43651;DHT22;29247;50.944;5.382;2023-03-01T14:32:12;8.00;50.30
43651;DHT22;29247;50.944;5.382;2023-03-01T14:34:44;8.00;50.10
43651;DHT22;29247;50.944;5.382;2023-03-01T14:37:29;8.00;49.80
43651;DHT22;29247;50.944;5.382;2023-03-01T14:39:57;8.00;49.60
43651;DHT22;29247;50.944;5.382;2023-03-01T14:42:36;8.00;49.60
43651;DHT22;29247;50.944;5.382;2023-03-01T14:45:03;8.00;49.70
43651;DHT22;29247;50.944;5.382;2023-03-01T14:47:37;8.00;49.60
43651;DHT22;29247;50.944;5.382;2023-03-01T14:50:07;8.00;49.50
43651;DHT22;29247;50.944;5.382;2023-03-01T14:52:42;8.00;49.60
43651;DHT22;29247;50.944;5.382;2023-03-01T14:55:24;8.00;49.50
43651;DHT22;29247;50.944;5.382;2023-03-01T14:57:57;8.00;49.20
43651;DHT22;29247;50.944;5.382;2023-03-01T15:00:29;8.00;49.30
43651;DHT22;29247;50.944;5.382;2023-03-01T15:02:58;8.00;49.20
43651;DHT22;29247;50.944;5.382;2023-03-01T15:05:35;8.10;49.20
43651;DHT22;29247;50.944;5.382;2023-03-01T15:08:06;8.10;49.20
43651;DHT22;29247;50.944;5.382;2023-03-01T15:10:35;8.10;49.20
43651;DHT22;29247;50.944;5.382;2023-03-01T15:13:13;8.10;49.60
43651;DHT22;29247;50.944;5.382;2023-03-01T15:15:45;8.10;50.00
43651;DHT22;29247;50.944;5.382;2023-03-01T15:18:19;8.00;50.10
43651;DHT22;29247;50.944;5.382;2023-03-01T15:20:53;8.00;50.10
43651;DHT22;29247;50.944;5.382;2023-03-01T15:23:25;8.10;50.10
43651;DHT22;29247;50.944;5.382;2023-03-01T15:25:54;8.00;49.90
43651;DHT22;29247;50.944;5.382;2023-03-01T15:28:27;8.00;49.90
43651;DHT22;29247;50.944;5.382;2023-03-01T15:31:02;7.90;50.00
43651;DHT22;29247;50.944;5.382;2023-03-01T15:33:35;7.90;50.10
43651;DHT22;29247;50.944;5.382;2023-03-01T15:36:49;7.80;50.20
43651;DHT22;29247;50.944;5.382;2023-03-01T15:38:54;7.80;50.10
43651;DHT22;29247;50.944;5.382;2023-03-01T15:41:27;7.80;50.70
43651;DHT22;29247;50.944;5.382;2023-03-01T15:43:54;7.80;50.10
43651;DHT22;29247;50.944;5.382;2023-03-01T15:46:32;7.80;50.00
43651;DHT22;29247;50.944;5.382;2023-03-01T15:49:00;7.80;49.90
43651;DHT22;29247;50.944;5.382;2023-03-01T15:51:33;7.90;49.70
43651;DHT22;29247;50.944;5.382;2023-03-01T15:54:04;7.90;49.20
43651;DHT22;29247;50.944;5.382;2023-03-01T15:56:30;7.90;49.00
43651;DHT22;29247;50.944;5.382;2023-03-01T15:59:02;7.90;48.80
43651;DHT22;29247;50.944;5.382;2023-03-01T16:01:29;7.80;48.70
43651;DHT22;29247;50.944;5.382;2023-03-01T16:03:55;7.80;48.70
43651;DHT22;29247;50.944;5.382;2023-03-01T16:06:22;7.70;48.60
43651;DHT22;29247;50.944;5.382;2023-03-01T16:08:49;7.70;48.60
43651;DHT22;29247;50.944;5.382;2023-03-01T16:11:17;7.70;48.70
43651;DHT22;29247;50.944;5.382;2023-03-01T16:13:44;7.70;48.60
43651;DHT22;29247;50.944;5.382;2023-03-01T16:16:13;7.60;48.60
43651;DHT22;29247;50.944;5.382;2023-03-01T16:18:45;7.60;48.60
43651;DHT22;29247;50.944;5.382;2023-03-01T16:21:19;7.60;48.50
43651;DHT22;29247;50.944;5.382;2023-03-01T16:23:48;7.60;48.60
43651;DHT22;29247;50.944;5.382;2023-03-01T16:26:14;7.70;48.50
43651;DHT22;29247;50.944;5.382;2023-03-01T16:28:41;7.70;48.50
43651;DHT22;29247;50.944;5.382;2023-03-01T16:31:09;7.60;48.70
43651;DHT22;29247;50.944;5.382;2023-03-01T16:33:38;7.60;48.80
43651;DHT22;29247;50.944;5.382;2023-03-01T16:36:09;7.60;48.90
43651;DHT22;29247;50.944;5.382;2023-03-01T16:38:35;7.60;49.00
43651;DHT22;29247;50.944;5.382;2023-03-01T16:41:01;7.60;49.20
43651;DHT22;29247;50.944;5.382;2023-03-01T16:43:29;7.60;49.40
43651;DHT22;29247;50.944;5.382;2023-03-01T16:45:56;7.50;49.50
43651;DHT22;29247;50.944;5.382;2023-03-01T16:48:24;7.50;49.80
43651;DHT22;29247;50.944;5.382;2023-03-01T16:51:02;7.40;50.40
43651;DHT22;29247;50.944;5.382;2023-03-01T16:53:28;7.40;49.80
43651;DHT22;29247;50.944;5.382;2023-03-01T16:55:58;7.40;49.80
43651;DHT22;29247;50.944;5.382;2023-03-01T16:58:24;7.30;49.90
43651;DHT22;29247;50.944;5.382;2023-03-01T17:00:51;7.30;49.90
43651;DHT22;29247;50.944;5.382;2023-03-01T17:03:19;7.30;49.80
43651;DHT22;29247;50.944;5.382;2023-03-01T17:05:45;7.30;49.80
43651;DHT22;29247;50.944;5.382;2023-03-01T17:08:10;7.30;49.90
43651;DHT22;29247;50.944;5.382;2023-03-01T17:10:39;7.30;50.00
43651;DHT22;29247;50.944;5.382;2023-03-01T17:13:08;7.20;50.00
43651;DHT22;29247;50.944;5.382;2023-03-01T17:15:34;7.20;50.10
43651;DHT22;29247;50.944;5.382;2023-03-01T17:18:01;7.20;50.10
43651;DHT22;29247;50.944;5.382;2023-03-01T17:20:29;7.20;50.30
43651;DHT22;29247;50.944;5.382;2023-03-01T17:22:56;7.10;50.50
43651;DHT22;29247;50.944;5.382;2023-03-01T17:25:27;7.00;50.80
43651;DHT22;29247;50.944;5.382;2023-03-01T17:27:53;7.00;50.80
43651;DHT22;29247;50.944;5.382;2023-03-01T17:30:19;6.90;50.90
43651;DHT22;29247;50.944;5.382;2023-03-01T17:32:45;6.90;51.10
43651;DHT22;29247;50.944;5.382;2023-03-01T17:35:10;6.80;51.30
43651;DHT22;29247;50.944;5.382;2023-03-01T17:37:37;6.80;51.30
43651;DHT22;29247;50.944;5.382;2023-03-01T17:40:04;6.80;51.30
43651;DHT22;29247;50.944;5.382;2023-03-01T17:42:31;6.70;51.20
43651;DHT22;29247;50.944;5.382;2023-03-01T17:44:57;6.70;51.40
43651;DHT22;29247;50.944;5.382;2023-03-01T17:47:25;6.70;51.30
43651;DHT22;29247;50.944;5.382;2023-03-01T17:49:51;6.70;51.50
43651;DHT22;29247;50.944;5.382;2023-03-01T17:52:18;6.60;51.60
43651;DHT22;29247;50.944;5.382;2023-03-01T17:54:48;6.50;51.80
43651;DHT22;29247;50.944;5.382;2023-03-01T17:57:16;6.50;52.00
43651;DHT22;29247;50.944;5.382;2023-03-01T17:59:44;6.50;52.20
43651;DHT22;29247;50.944;5.382;2023-03-01T18:02:12;6.40;52.30
43651;DHT22;29247;50.944;5.382;2023-03-01T18:04:37;6.40;52.40
43651;DHT22;29247;50.944;5.382;2023-03-01T18:07:03;6.30;52.40